Aviation Digital Data Service (ADDS)

Output produced by TAFs form (0333 UTC 23 August 2014)
found at http://aviationweather.gov/adds/tafs/
 
KEGE 222327Z 2300/2324 VRB03KT P6SM VCSH SCT080 BKN120 
     FM230100 VRB03KT P6SM VCTS SCT050CB BKN100 
     TEMPO 2301/2302 VRB10G20KT -TSRA BKN070CB 
     FM230200 24004KT P6SM VCSH SCT080 BKN110 
     FM230600 07003KT P6SM -RA SCT050 OVC070 
     FM231500 24009KT P6SM VCSH SCT050 BKN070 
     FM231800 24010KT P6SM VCSH BKN050 AMD LTD TO CLD VIS AND WIND 2301/2313